Time,TemperatureF,DewpointF,PressureIn,WindDirection,WindDirectionDegrees,WindSpeedMPH,WindSpeedGustMPH,Humidity,HourlyPrecipIn,Conditions,Clouds,dailyrainin,SoftwareType,DateUTC
2013-02-25 00:01:00,29.0,14.9,-100.00,North,-999,-999.0,-999.0,51,-99.99,,,-99.99,WSDL version 420,2013-02-25 07:01:00,
2013-02-25 00:06:00,28.9,14.8,-100.00,North,-999,-999.0,-999.0,51,-99.99,,,-99.99,WSDL version 420,2013-02-25 07:06:00,
2013-02-25 00:11:00,28.8,14.7,-100.00,North,-999,-999.0,-999.0,51,-99.99,,,-99.99,WSDL version 420,2013-02-25 07:11:00,
2013-02-25 00:16:00,28.8,14.7,-100.00,North,-999,-999.0,-999.0,51,-99.99,,,-99.99,WSDL version 420,2013-02-25 07:16:00,
2013-02-25 00:21:00,28.6,14.5,-100.00,North,-999,-999.0,-999.0,51,-99.99,,,-99.99,WSDL version 420,2013-02-25 07:21:00,
2013-02-25 00:26:00,28.6,14.5,-100.00,North,-999,-999.0,-999.0,51,-99.99,,,-99.99,WSDL version 420,2013-02-25 07:26:00,
2013-02-25 00:31:00,28.6,14.5,-100.00,North,-999,-999.0,-999.0,51,-99.99,,,-99.99,WSDL version 420,2013-02-25 07:31:00,
2013-02-25 00:36:00,28.6,14.5,-100.00,North,-999,-999.0,-999.0,51,-99.99,,,-99.99,WSDL version 420,2013-02-25 07:36:00,
2013-02-25 00:41:00,28.6,14.5,-100.00,North,-999,-999.0,-999.0,51,-99.99,,,-99.99,WSDL version 420,2013-02-25 07:41:00,
2013-02-25 00:46:00,28.6,14.5,-100.00,North,-999,-999.0,-999.0,51,-99.99,,,-99.99,WSDL version 420,2013-02-25 07:46:00,
2013-02-25 00:51:00,28.6,14.5,-100.00,North,-999,-999.0,-999.0,51,-99.99,,,-99.99,WSDL version 420,2013-02-25 07:51:00,
2013-02-25 00:56:00,28.6,14.5,-100.00,North,-999,-999.0,-999.0,51,-99.99,,,-99.99,WSDL version 420,2013-02-25 07:56:00,
2013-02-25 01:01:00,28.6,14.5,-100.00,North,-999,-999.0,-999.0,51,-99.99,,,-99.99,WSDL version 420,2013-02-25 08:01:00,
2013-02-25 01:14:00,28.6,14.5,-100.00,North,-999,-999.0,-999.0,51,-99.99,,,-99.99,WSDL version 420,2013-02-25 08:14:00,
2013-02-25 01:19:00,28.6,14.5,-100.00,North,-999,-999.0,-999.0,51,-99.99,,,-99.99,WSDL version 420,2013-02-25 08:19:00,
2013-02-25 01:24:00,28.6,14.5,-100.00,North,-999,-999.0,-999.0,51,-99.99,,,-99.99,WSDL version 420,2013-02-25 08:24:00,
2013-02-25 01:29:00,28.6,14.5,-100.00,North,-999,-999.0,-999.0,51,-99.99,,,-99.99,WSDL version 420,2013-02-25 08:29:00,
2013-02-25 01:34:00,28.6,14.5,-100.00,North,-999,-999.0,-999.0,51,-99.99,,,-99.99,WSDL version 420,2013-02-25 08:34:00,
2013-02-25 01:39:00,28.6,14.5,-100.00,North,-999,-999.0,-999.0,51,-99.99,,,-99.99,WSDL version 420,2013-02-25 08:39:00,
2013-02-25 01:44:00,28.7,14.6,-100.00,North,-999,-999.0,-999.0,51,-99.99,,,-99.99,WSDL version 420,2013-02-25 08:44:00,
2013-02-25 01:49:00,28.8,14.7,-100.00,North,-999,-999.0,-999.0,51,-99.99,,,-99.99,WSDL version 420,2013-02-25 08:49:00,
2013-02-25 01:54:00,28.7,14.6,-100.00,North,-999,-999.0,-999.0,51,-99.99,,,-99.99,WSDL version 420,2013-02-25 08:54:00,
2013-02-25 01:59:00,28.6,14.5,-100.00,North,-999,-999.0,-999.0,51,-99.99,,,-99.99,WSDL version 420,2013-02-25 08:59:00,
2013-02-25 02:13:00,28.6,14.5,-100.00,North,-999,-999.0,-999.0,51,-99.99,,,-99.99,WSDL version 420,2013-02-25 09:13:00,
2013-02-25 02:18:00,28.6,14.5,-100.00,North,-999,-999.0,-999.0,51,-99.99,,,-99.99,WSDL version 420,2013-02-25 09:18:00,
2013-02-25 02:23:00,28.6,14.5,-100.00,North,-999,-999.0,-999.0,51,-99.99,,,-99.99,WSDL version 420,2013-02-25 09:23:00,
2013-02-25 02:28:00,28.6,14.5,-100.00,North,-999,-999.0,-999.0,51,-99.99,,,-99.99,WSDL version 420,2013-02-25 09:28:00,
2013-02-25 02:33:00,28.6,14.5,-100.00,North,-999,-999.0,-999.0,51,-99.99,,,-99.99,WSDL version 420,2013-02-25 09:33:00,
2013-02-25 02:38:00,28.6,14.5,-100.00,North,-999,-999.0,-999.0,51,-99.99,,,-99.99,WSDL version 420,2013-02-25 09:38:00,
2013-02-25 02:43:00,28.6,14.5,-100.00,North,-999,-999.0,-999.0,51,-99.99,,,-99.99,WSDL version 420,2013-02-25 09:43:00,
2013-02-25 02:48:00,28.6,14.5,-100.00,North,-999,-999.0,-999.0,51,-99.99,,,-99.99,WSDL version 420,2013-02-25 09:48:00,
2013-02-25 02:53:00,28.7,14.6,-100.00,North,-999,-999.0,-999.0,51,-99.99,,,-99.99,WSDL version 420,2013-02-25 09:53:00,
2013-02-25 02:58:00,28.8,14.7,-100.00,North,-999,-999.0,-999.0,51,-99.99,,,-99.99,WSDL version 420,2013-02-25 09:58:00,
2013-02-25 03:13:00,28.8,14.7,-100.00,North,-999,-999.0,-999.0,51,-99.99,,,-99.99,WSDL version 420,2013-02-25 10:13:00,
2013-02-25 03:18:00,28.8,14.7,-100.00,North,-999,-999.0,-999.0,51,-99.99,,,-99.99,WSDL version 420,2013-02-25 10:18:00,
2013-02-25 03:23:00,28.8,14.7,-100.00,North,-999,-999.0,-999.0,51,-99.99,,,-99.99,WSDL version 420,2013-02-25 10:23:00,
2013-02-25 03:28:00,28.8,14.7,-100.00,North,-999,-999.0,-999.0,51,-99.99,,,-99.99,WSDL version 420,2013-02-25 10:28:00,
2013-02-25 03:33:00,28.8,14.7,-100.00,North,-999,-999.0,-999.0,51,-99.99,,,-99.99,WSDL version 420,2013-02-25 10:33:00,
2013-02-25 03:38:00,28.7,14.6,-100.00,North,-999,-999.0,-999.0,51,-99.99,,,-99.99,WSDL version 420,2013-02-25 10:38:00,
2013-02-25 03:43:00,28.6,14.5,-100.00,North,-999,-999.0,-999.0,51,-99.99,,,-99.99,WSDL version 420,2013-02-25 10:43:00,
2013-02-25 03:48:00,28.6,14.5,-100.00,North,-999,-999.0,-999.0,51,-99.99,,,-99.99,WSDL version 420,2013-02-25 10:48:00,
2013-02-25 03:53:00,28.6,14.5,-100.00,North,-999,-999.0,-999.0,52,-99.99,,,-99.99,WSDL version 420,2013-02-25 10:53:00,
2013-02-25 03:58:00,28.4,14.7,-100.00,North,-999,-999.0,-999.0,52,-99.99,,,-99.99,WSDL version 420,2013-02-25 10:58:00,
2013-02-25 04:03:00,28.4,14.7,-100.00,North,-999,-999.0,-999.0,52,-99.99,,,-99.99,WSDL version 420,2013-02-25 11:03:00,
2013-02-25 04:08:00,28.2,14.5,-100.00,North,-999,-999.0,-999.0,52,-99.99,,,-99.99,WSDL version 420,2013-02-25 11:08:00,
2013-02-25 04:13:00,28.3,14.6,-100.00,North,-999,-999.0,-999.0,52,-99.99,,,-99.99,WSDL version 420,2013-02-25 11:13:00,
2013-02-25 04:18:00,28.4,14.7,-100.00,North,-999,-999.0,-999.0,52,-99.99,,,-99.99,WSDL version 420,2013-02-25 11:18:00,
2013-02-25 04:23:00,28.2,14.2,-100.00,North,-999,-999.0,-999.0,51,-99.99,,,-99.99,WSDL version 420,2013-02-25 11:23:00,
2013-02-25 04:28:00,28.2,14.1,-100.00,North,-999,-999.0,-999.0,51,-99.99,,,-99.99,WSDL version 420,2013-02-25 11:28:00,
2013-02-25 04:33:00,28.2,14.1,-100.00,North,-999,-999.0,-999.0,51,-99.99,,,-99.99,WSDL version 420,2013-02-25 11:33:00,
2013-02-25 04:38:00,28.2,14.1,-100.00,North,-999,-999.0,-999.0,51,-99.99,,,-99.99,WSDL version 420,2013-02-25 11:38:00,
2013-02-25 04:43:00,28.0,14.0,-100.00,North,-999,-999.0,-999.0,51,-99.99,,,-99.99,WSDL version 420,2013-02-25 11:43:00,
2013-02-25 04:48:00,28.0,14.0,-100.00,North,-999,-999.0,-999.0,51,-99.99,,,-99.99,WSDL version 420,2013-02-25 11:48:00,
2013-02-25 04:53:00,28.0,14.0,-100.00,North,-999,-999.0,-999.0,51,-99.99,,,-99.99,WSDL version 420,2013-02-25 11:53:00,
2013-02-25 04:58:00,28.0,14.0,-100.00,North,-999,-999.0,-999.0,51,-99.99,,,-99.99,WSDL version 420,2013-02-25 11:58:00,
2013-02-25 05:03:00,27.9,13.8,-100.00,North,-999,-999.0,-999.0,51,-99.99,,,-99.99,WSDL version 420,2013-02-25 12:03:00,
2013-02-25 05:08:00,27.9,13.8,-100.00,North,-999,-999.0,-999.0,51,-99.99,,,-99.99,WSDL version 420,2013-02-25 12:08:00,
2013-02-25 05:13:00,27.9,13.8,-100.00,North,-999,-999.0,-999.0,51,-99.99,,,-99.99,WSDL version 420,2013-02-25 12:13:00,
2013-02-25 05:18:00,27.9,13.8,-100.00,North,-999,-999.0,-999.0,51,-99.99,,,-99.99,WSDL version 420,2013-02-25 12:18:00,
2013-02-25 05:23:00,27.9,13.8,-100.00,North,-999,-999.0,-999.0,51,-99.99,,,-99.99,WSDL version 420,2013-02-25 12:23:00,
2013-02-25 05:28:00,27.9,13.8,-100.00,North,-999,-999.0,-999.0,51,-99.99,,,-99.99,WSDL version 420,2013-02-25 12:28:00,
2013-02-25 05:33:00,27.9,13.8,-100.00,North,-999,-999.0,-999.0,51,-99.99,,,-99.99,WSDL version 420,2013-02-25 12:33:00,
2013-02-25 05:38:00,27.9,13.8,-100.00,North,-999,-999.0,-999.0,51,-99.99,,,-99.99,WSDL version 420,2013-02-25 12:38:00,
2013-02-25 05:43:00,27.9,13.8,-100.00,North,-999,-999.0,-999.0,51,-99.99,,,-99.99,WSDL version 420,2013-02-25 12:43:00,
2013-02-25 05:49:00,27.9,13.8,-100.00,North,-999,-999.0,-999.0,51,-99.99,,,-99.99,WSDL version 420,2013-02-25 12:49:00,
2013-02-25 05:55:00,27.7,13.7,-100.00,North,-999,-999.0,-999.0,51,-99.99,,,-99.99,WSDL version 420,2013-02-25 12:55:00,
2013-02-25 06:00:00,27.7,13.6,-100.00,North,-999,-999.0,-999.0,51,-99.99,,,-99.99,WSDL version 420,2013-02-25 13:00:00,
2013-02-25 06:05:00,27.7,13.7,-100.00,North,-999,-999.0,-999.0,51,-99.99,,,-99.99,WSDL version 420,2013-02-25 13:05:00,
2013-02-25 06:11:00,27.9,13.8,-100.00,North,-999,-999.0,-999.0,51,-99.99,,,-99.99,WSDL version 420,2013-02-25 13:11:00,
2013-02-25 06:17:00,27.9,13.7,-100.00,North,-999,-999.0,-999.0,50,-99.99,,,-99.99,WSDL version 420,2013-02-25 13:17:00,
2013-02-25 06:23:00,27.9,13.4,-100.00,North,-999,-999.0,-999.0,50,-99.99,,,-99.99,WSDL version 420,2013-02-25 13:23:00,
2013-02-25 06:28:00,27.9,13.4,-100.00,North,-999,-999.0,-999.0,50,-99.99,,,-99.99,WSDL version 420,2013-02-25 13:28:00,
2013-02-25 06:33:00,27.9,13.4,-100.00,North,-999,-999.0,-999.0,50,-99.99,,,-99.99,WSDL version 420,2013-02-25 13:33:00,
2013-02-25 06:38:00,27.7,13.3,-100.00,North,-999,-999.0,-999.0,50,-99.99,,,-99.99,WSDL version 420,2013-02-25 13:38:00,
2013-02-25 06:44:00,27.7,13.2,-100.00,North,-999,-999.0,-999.0,50,-99.99,,,-99.99,WSDL version 420,2013-02-25 13:44:00,
2013-02-25 06:49:00,27.5,13.1,-100.00,North,-999,-999.0,-999.0,50,-99.99,,,-99.99,WSDL version 420,2013-02-25 13:49:00,
2013-02-25 06:54:00,27.4,12.9,-100.00,North,-999,-999.0,-999.0,50,-99.99,,,-99.99,WSDL version 420,2013-02-25 13:54:00,
2013-02-25 06:59:00,27.2,12.7,-100.00,North,-999,-999.0,-999.0,50,-99.99,,,-99.99,WSDL version 420,2013-02-25 13:59:00,
2013-02-25 07:04:00,27.0,12.6,-100.00,North,-999,-999.0,-999.0,50,-99.99,,,-99.99,WSDL version 420,2013-02-25 14:04:00,
2013-02-25 07:09:00,27.0,12.6,-100.00,North,-999,-999.0,-999.0,50,-99.99,,,-99.99,WSDL version 420,2013-02-25 14:09:00,
2013-02-25 07:15:00,26.8,12.4,-100.00,North,-999,-999.0,-999.0,50,-99.99,,,-99.99,WSDL version 420,2013-02-25 14:15:00,
2013-02-25 07:21:00,26.9,12.5,-100.00,North,-999,-999.0,-999.0,50,-99.99,,,-99.99,WSDL version 420,2013-02-25 14:21:00,
2013-02-25 07:26:00,27.0,12.6,-100.00,North,-999,-999.0,-999.0,50,-99.99,,,-99.99,WSDL version 420,2013-02-25 14:26:00,
2013-02-25 07:31:00,27.2,12.8,-100.00,North,-999,-999.0,-999.0,50,-99.99,,,-99.99,WSDL version 420,2013-02-25 14:31:00,
2013-02-25 07:36:00,27.4,13.0,-100.00,North,-999,-999.0,-999.0,50,-99.99,,,-99.99,WSDL version 420,2013-02-25 14:36:00,
2013-02-25 07:41:00,27.7,13.2,-100.00,North,-999,-999.0,-999.0,50,-99.99,,,-99.99,WSDL version 420,2013-02-25 14:41:00,
2013-02-25 07:46:00,27.9,13.4,-100.00,North,-999,-999.0,-999.0,50,-99.99,,,-99.99,WSDL version 420,2013-02-25 14:46:00,
2013-02-25 07:51:00,28.2,13.7,-100.00,North,-999,-999.0,-999.0,50,-99.99,,,-99.99,WSDL version 420,2013-02-25 14:51:00,
2013-02-25 07:56:00,28.5,14.0,-100.00,North,-999,-999.0,-999.0,50,-99.99,,,-99.99,WSDL version 420,2013-02-25 14:56:00,
2013-02-25 08:02:00,28.9,14.4,-100.00,North,-999,-999.0,-999.0,50,-99.99,,,-99.99,WSDL version 420,2013-02-25 15:02:00,
2013-02-25 08:07:00,29.4,14.5,-100.00,North,-999,-999.0,-999.0,49,-99.99,,,-99.99,WSDL version 420,2013-02-25 15:07:00,
2013-02-25 08:12:00,29.7,14.8,-100.00,North,-999,-999.0,-999.0,49,-99.99,,,-99.99,WSDL version 420,2013-02-25 15:12:00,
2013-02-25 08:17:00,30.1,15.1,-100.00,North,-999,-999.0,-999.0,49,-99.99,,,-99.99,WSDL version 420,2013-02-25 15:17:00,
2013-02-25 08:22:00,30.5,15.5,-100.00,North,-999,-999.0,-999.0,49,-99.99,,,-99.99,WSDL version 420,2013-02-25 15:22:00,
2013-02-25 08:27:00,31.0,15.9,-100.00,North,-999,-999.0,-999.0,49,-99.99,,,-99.99,WSDL version 420,2013-02-25 15:27:00,
2013-02-25 08:32:00,31.3,16.1,-100.00,North,-999,-999.0,-999.0,48,-99.99,,,-99.99,WSDL version 420,2013-02-25 15:32:00,
2013-02-25 08:37:00,31.9,16.0,-100.00,North,-999,-999.0,-999.0,48,-99.99,,,-99.99,WSDL version 420,2013-02-25 15:37:00,
2013-02-25 08:42:00,32.3,14.8,-100.00,North,-999,-999.0,-999.0,48,-99.99,,,-99.99,WSDL version 420,2013-02-25 15:42:00,
2013-02-25 08:47:00,32.7,15.2,-100.00,North,-999,-999.0,-999.0,48,-99.99,,,-99.99,WSDL version 420,2013-02-25 15:47:00,
2013-02-25 08:52:00,33.1,15.2,-100.00,North,-999,-999.0,-999.0,47,-99.99,,,-99.99,WSDL version 420,2013-02-25 15:52:00,
2013-02-25 08:57:00,33.5,15.5,-100.00,North,-999,-999.0,-999.0,47,-99.99,,,-99.99,WSDL version 420,2013-02-25 15:57:00,
2013-02-25 09:14:00,34.9,16.7,-100.00,North,-999,-999.0,-999.0,47,-99.99,,,-99.99,WSDL version 420,2013-02-25 16:14:00,
2013-02-25 09:19:00,35.4,16.8,-100.00,North,-999,-999.0,-999.0,46,-99.99,,,-99.99,WSDL version 420,2013-02-25 16:19:00,
2013-02-25 09:24:00,36.0,17.2,-100.00,North,-999,-999.0,-999.0,46,-99.99,,,-99.99,WSDL version 420,2013-02-25 16:24:00,
2013-02-25 09:29:00,36.7,17.4,-100.00,North,-999,-999.0,-999.0,45,-99.99,,,-99.99,WSDL version 420,2013-02-25 16:29:00,
2013-02-25 09:34:00,37.5,17.9,-100.00,North,-999,-999.0,-999.0,44,-99.99,,,-99.99,WSDL version 420,2013-02-25 16:34:00,
2013-02-25 09:39:00,38.3,18.3,-100.00,North,-999,-999.0,-999.0,44,-99.99,,,-99.99,WSDL version 420,2013-02-25 16:39:00,
2013-02-25 09:44:00,38.9,19.3,-100.00,North,-999,-999.0,-999.0,44,-99.99,,,-99.99,WSDL version 420,2013-02-25 16:44:00,
2013-02-25 09:49:00,39.7,19.6,-100.00,North,-999,-999.0,-999.0,44,-99.99,,,-99.99,WSDL version 420,2013-02-25 16:49:00,
2013-02-25 09:54:00,40.7,20.5,-100.00,North,-999,-999.0,-999.0,44,-99.99,,,-99.99,WSDL version 420,2013-02-25 16:54:00,
2013-02-25 09:59:00,41.4,21.1,-100.00,North,-999,-999.0,-999.0,44,-99.99,,,-99.99,WSDL version 420,2013-02-25 16:59:00,
2013-02-25 10:05:00,41.9,21.4,-100.00,North,-999,-999.0,-999.0,43,-99.99,,,-99.99,WSDL version 420,2013-02-25 17:05:00,
2013-02-25 10:10:00,42.4,21.5,-100.00,North,-999,-999.0,-999.0,43,-99.99,,,-99.99,WSDL version 420,2013-02-25 17:10:00,
2013-02-25 10:15:00,42.9,21.9,-100.00,North,-999,-999.0,-999.0,43,-99.99,,,-99.99,WSDL version 420,2013-02-25 17:15:00,
2013-02-25 10:20:00,43.8,22.7,-100.00,North,-999,-999.0,-999.0,42,-99.99,,,-99.99,WSDL version 420,2013-02-25 17:20:00,
2013-02-25 10:25:00,44.4,22.9,-100.00,North,-999,-999.0,-999.0,42,-99.99,,,-99.99,WSDL version 420,2013-02-25 17:25:00,
2013-02-25 10:31:00,44.4,22.6,-100.00,North,-999,-999.0,-999.0,42,-99.99,,,-99.99,WSDL version 420,2013-02-25 17:31:00,
2013-02-25 10:36:00,44.7,22.6,-100.00,North,-999,-999.0,-999.0,41,-99.99,,,-99.99,WSDL version 420,2013-02-25 17:36:00,
2013-02-25 10:41:00,45.2,22.9,-100.00,North,-999,-999.0,-999.0,41,-99.99,,,-99.99,WSDL version 420,2013-02-25 17:41:00,
2013-02-25 10:46:00,45.8,23.5,-100.00,North,-999,-999.0,-999.0,41,-99.99,,,-99.99,WSDL version 420,2013-02-25 17:46:00,
2013-02-25 10:51:00,46.2,23.8,-100.00,North,-999,-999.0,-999.0,41,-99.99,,,-99.99,WSDL version 420,2013-02-25 17:51:00,
2013-02-25 10:56:00,46.2,23.3,-100.00,North,-999,-999.0,-999.0,40,-99.99,,,-99.99,WSDL version 420,2013-02-25 17:56:00,
2013-02-25 11:01:00,46.4,23.3,-100.00,North,-999,-999.0,-999.0,40,-99.99,,,-99.99,WSDL version 420,2013-02-25 18:01:00,
2013-02-25 11:07:00,47.0,23.5,-100.00,North,-999,-999.0,-999.0,39,-99.99,,,-99.99,WSDL version 420,2013-02-25 18:07:00,
2013-02-25 11:12:00,47.5,23.6,-100.00,North,-999,-999.0,-999.0,39,-99.99,,,-99.99,WSDL version 420,2013-02-25 18:12:00,
2013-02-25 11:17:00,48.4,24.2,-100.00,North,-999,-999.0,-999.0,38,-99.99,,,-99.99,WSDL version 420,2013-02-25 18:17:00,
2013-02-25 11:22:00,48.4,23.6,-100.00,North,-999,-999.0,-999.0,37,-99.99,,,-99.99,WSDL version 420,2013-02-25 18:22:00,
2013-02-25 11:27:00,48.8,23.9,-100.00,North,-999,-999.0,-999.0,37,-99.99,,,-99.99,WSDL version 420,2013-02-25 18:27:00,
2013-02-25 11:32:00,48.7,23.6,-100.00,North,-999,-999.0,-999.0,37,-99.99,,,-99.99,WSDL version 420,2013-02-25 18:32:00,
2013-02-25 11:37:00,48.7,23.6,-100.00,North,-999,-999.0,-999.0,37,-99.99,,,-99.99,WSDL version 420,2013-02-25 18:37:00,
2013-02-25 11:42:00,48.9,23.7,-100.00,North,-999,-999.0,-999.0,37,-99.99,,,-99.99,WSDL version 420,2013-02-25 18:42:00,
2013-02-25 11:47:00,48.3,23.1,-100.00,North,-999,-999.0,-999.0,37,-99.99,,,-99.99,WSDL version 420,2013-02-25 18:47:00,
2013-02-25 11:52:00,48.4,23.3,-100.00,North,-999,-999.0,-999.0,37,-99.99,,,-99.99,WSDL version 420,2013-02-25 18:52:00,
2013-02-25 11:57:00,48.7,23.6,-100.00,North,-999,-999.0,-999.0,37,-99.99,,,-99.99,WSDL version 420,2013-02-25 18:57:00,
2013-02-25 12:02:00,48.9,23.7,-100.00,North,-999,-999.0,-999.0,37,-99.99,,,-99.99,WSDL version 420,2013-02-25 19:02:00,
2013-02-25 12:07:00,48.0,22.7,-100.00,North,-999,-999.0,-999.0,37,-99.99,,,-99.99,WSDL version 420,2013-02-25 19:07:00,
2013-02-25 12:12:00,48.2,23.0,-100.00,North,-999,-999.0,-999.0,37,-99.99,,,-99.99,WSDL version 420,2013-02-25 19:12:00,
2013-02-25 12:17:00,48.2,22.6,-100.00,North,-999,-999.0,-999.0,36,-99.99,,,-99.99,WSDL version 420,2013-02-25 19:17:00,
2013-02-25 12:22:00,48.3,22.6,-100.00,North,-999,-999.0,-999.0,36,-99.99,,,-99.99,WSDL version 420,2013-02-25 19:22:00,
2013-02-25 12:27:00,48.8,23.4,-100.00,North,-999,-999.0,-999.0,37,-99.99,,,-99.99,WSDL version 420,2013-02-25 19:27:00,
2013-02-25 12:32:00,49.4,24.3,-100.00,North,-999,-999.0,-999.0,37,-99.99,,,-99.99,WSDL version 420,2013-02-25 19:32:00,
2013-02-25 12:38:00,48.9,22.8,-100.00,North,-999,-999.0,-999.0,36,-99.99,,,-99.99,WSDL version 420,2013-02-25 19:38:00,
2013-02-25 12:43:00,48.6,22.9,-100.00,North,-999,-999.0,-999.0,36,-99.99,,,-99.99,WSDL version 420,2013-02-25 19:43:00,
2013-02-25 12:48:00,48.8,23.5,-100.00,North,-999,-999.0,-999.0,36,-99.99,,,-99.99,WSDL version 420,2013-02-25 19:48:00,
2013-02-25 12:53:00,48.6,22.7,-100.00,North,-999,-999.0,-999.0,36,-99.99,,,-99.99,WSDL version 420,2013-02-25 19:53:00,
2013-02-25 12:58:00,48.3,22.5,-100.00,North,-999,-999.0,-999.0,36,-99.99,,,-99.99,WSDL version 420,2013-02-25 19:58:00,
2013-02-25 13:03:00,48.4,22.8,-100.00,North,-999,-999.0,-999.0,37,-99.99,,,-99.99,WSDL version 420,2013-02-25 20:03:00,
2013-02-25 13:08:00,48.4,22.8,-100.00,North,-999,-999.0,-999.0,37,-99.99,,,-99.99,WSDL version 420,2013-02-25 20:08:00,
2013-02-25 13:14:00,48.3,22.7,-100.00,North,-999,-999.0,-999.0,37,-99.99,,,-99.99,WSDL version 420,2013-02-25 20:14:00,
2013-02-25 13:19:00,48.5,23.3,-100.00,North,-999,-999.0,-999.0,37,-99.99,,,-99.99,WSDL version 420,2013-02-25 20:19:00,
2013-02-25 13:24:00,48.6,22.8,-100.00,North,-999,-999.0,-999.0,36,-99.99,,,-99.99,WSDL version 420,2013-02-25 20:24:00,
2013-02-25 13:29:00,48.0,22.3,-100.00,North,-999,-999.0,-999.0,36,-99.99,,,-99.99,WSDL version 420,2013-02-25 20:29:00,
2013-02-25 13:34:00,47.9,22.7,-100.00,North,-999,-999.0,-999.0,37,-99.99,,,-99.99,WSDL version 420,2013-02-25 20:34:00,
2013-02-25 13:39:00,48.0,22.1,-100.00,North,-999,-999.0,-999.0,36,-99.99,,,-99.99,WSDL version 420,2013-02-25 20:39:00,
2013-02-25 13:44:00,47.6,22.0,-100.00,North,-999,-999.0,-999.0,37,-99.99,,,-99.99,WSDL version 420,2013-02-25 20:44:00,
2013-02-25 13:49:00,47.7,22.2,-100.00,North,-999,-999.0,-999.0,36,-99.99,,,-99.99,WSDL version 420,2013-02-25 20:49:00,
2013-02-25 13:54:00,47.4,21.8,-100.00,North,-999,-999.0,-999.0,36,-99.99,,,-99.99,WSDL version 420,2013-02-25 20:54:00,
2013-02-25 13:59:00,47.4,22.4,-100.00,North,-999,-999.0,-999.0,37,-99.99,,,-99.99,WSDL version 420,2013-02-25 20:59:00,
2013-02-25 14:04:00,47.5,21.8,-100.00,North,-999,-999.0,-999.0,35,-99.99,,,-99.99,WSDL version 420,2013-02-25 21:04:00,
2013-02-25 14:09:00,47.9,22.6,-100.00,North,-999,-999.0,-999.0,36,-99.99,,,-99.99,WSDL version 420,2013-02-25 21:09:00,
2013-02-25 14:14:00,47.8,22.2,-100.00,North,-999,-999.0,-999.0,36,-99.99,,,-99.99,WSDL version 420,2013-02-25 21:14:00,
2013-02-25 14:19:00,47.9,22.6,-100.00,North,-999,-999.0,-999.0,36,-99.99,,,-99.99,WSDL version 420,2013-02-25 21:19:00,
2013-02-25 14:24:00,48.0,23.0,-100.00,North,-999,-999.0,-999.0,37,-99.99,,,-99.99,WSDL version 420,2013-02-25 21:24:00,
2013-02-25 14:29:00,48.0,23.0,-100.00,North,-999,-999.0,-999.0,37,-99.99,,,-99.99,WSDL version 420,2013-02-25 21:29:00,
2013-02-25 14:34:00,47.9,22.7,-100.00,North,-999,-999.0,-999.0,36,-99.99,,,-99.99,WSDL version 420,2013-02-25 21:34:00,
2013-02-25 14:39:00,47.6,22.4,-100.00,North,-999,-999.0,-999.0,36,-99.99,,,-99.99,WSDL version 420,2013-02-25 21:39:00,
2013-02-25 14:44:00,47.5,22.4,-100.00,North,-999,-999.0,-999.0,37,-99.99,,,-99.99,WSDL version 420,2013-02-25 21:44:00,
2013-02-25 14:49:00,47.3,22.4,-100.00,North,-999,-999.0,-999.0,37,-99.99,,,-99.99,WSDL version 420,2013-02-25 21:49:00,
2013-02-25 14:54:00,47.3,22.1,-100.00,North,-999,-999.0,-999.0,36,-99.99,,,-99.99,WSDL version 420,2013-02-25 21:54:00,
2013-02-25 14:59:00,47.3,22.3,-100.00,North,-999,-999.0,-999.0,37,-99.99,,,-99.99,WSDL version 420,2013-02-25 21:59:00,
2013-02-25 15:13:00,47.4,22.4,-100.00,North,-999,-999.0,-999.0,37,-99.99,,,-99.99,WSDL version 420,2013-02-25 22:13:00,
2013-02-25 15:18:00,47.5,22.5,-100.00,North,-999,-999.0,-999.0,37,-99.99,,,-99.99,WSDL version 420,2013-02-25 22:18:00,
2013-02-25 15:23:00,47.5,22.5,-100.00,North,-999,-999.0,-999.0,37,-99.99,,,-99.99,WSDL version 420,2013-02-25 22:23:00,
2013-02-25 15:28:00,47.4,22.5,-100.00,North,-999,-999.0,-999.0,37,-99.99,,,-99.99,WSDL version 420,2013-02-25 22:28:00,
2013-02-25 15:33:00,47.3,22.3,-100.00,North,-999,-999.0,-999.0,37,-99.99,,,-99.99,WSDL version 420,2013-02-25 22:33:00,
2013-02-25 15:38:00,47.1,21.9,-100.00,North,-999,-999.0,-999.0,36,-99.99,,,-99.99,WSDL version 420,2013-02-25 22:38:00,
2013-02-25 15:43:00,47.0,21.5,-100.00,North,-999,-999.0,-999.0,36,-99.99,,,-99.99,WSDL version 420,2013-02-25 22:43:00,
2013-02-25 15:48:00,46.8,21.3,-100.00,North,-999,-999.0,-999.0,37,-99.99,,,-99.99,WSDL version 420,2013-02-25 22:48:00,
2013-02-25 15:53:00,46.8,21.6,-100.00,North,-999,-999.0,-999.0,36,-99.99,,,-99.99,WSDL version 420,2013-02-25 22:53:00,
2013-02-25 15:58:00,46.8,21.8,-100.00,North,-999,-999.0,-999.0,37,-99.99,,,-99.99,WSDL version 420,2013-02-25 22:58:00,
2013-02-25 16:03:00,46.5,21.1,-100.00,North,-999,-999.0,-999.0,37,-99.99,,,-99.99,WSDL version 420,2013-02-25 23:03:00,
2013-02-25 16:08:00,46.4,21.5,-100.00,North,-999,-999.0,-999.0,37,-99.99,,,-99.99,WSDL version 420,2013-02-25 23:08:00,
2013-02-25 16:13:00,46.2,21.4,-100.00,North,-999,-999.0,-999.0,37,-99.99,,,-99.99,WSDL version 420,2013-02-25 23:13:00,
2013-02-25 16:18:00,45.9,21.1,-100.00,North,-999,-999.0,-999.0,37,-99.99,,,-99.99,WSDL version 420,2013-02-25 23:18:00,
2013-02-25 16:23:00,45.4,20.5,-100.00,North,-999,-999.0,-999.0,37,-99.99,,,-99.99,WSDL version 420,2013-02-25 23:23:00,
2013-02-25 16:28:00,45.2,20.4,-100.00,North,-999,-999.0,-999.0,37,-99.99,,,-99.99,WSDL version 420,2013-02-25 23:28:00,
2013-02-25 16:33:00,44.9,20.2,-100.00,North,-999,-999.0,-999.0,37,-99.99,,,-99.99,WSDL version 420,2013-02-25 23:33:00,
2013-02-25 16:38:00,44.6,20.0,-100.00,North,-999,-999.0,-999.0,37,-99.99,,,-99.99,WSDL version 420,2013-02-25 23:38:00,
2013-02-25 16:43:00,44.3,20.3,-100.00,North,-999,-999.0,-999.0,38,-99.99,,,-99.99,WSDL version 420,2013-02-25 23:43:00,
2013-02-25 16:49:00,43.9,20.0,-100.00,North,-999,-999.0,-999.0,38,-99.99,,,-99.99,WSDL version 420,2013-02-25 23:49:00,
2013-02-25 16:54:00,43.6,19.7,-100.00,North,-999,-999.0,-999.0,38,-99.99,,,-99.99,WSDL version 420,2013-02-25 23:54:00,
2013-02-25 16:59:00,43.2,19.3,-100.00,North,-999,-999.0,-999.0,38,-99.99,,,-99.99,WSDL version 420,2013-02-25 23:59:00,
2013-02-25 17:04:00,42.9,19.0,-100.00,North,-999,-999.0,-999.0,38,-99.99,,,-99.99,WSDL version 420,2013-02-26 00:04:00,
2013-02-25 17:09:00,42.6,18.8,-100.00,North,-999,-999.0,-999.0,38,-99.99,,,-99.99,WSDL version 420,2013-02-26 00:09:00,
2013-02-25 17:15:00,42.3,18.5,-100.00,North,-999,-999.0,-999.0,38,-99.99,,,-99.99,WSDL version 420,2013-02-26 00:15:00,
2013-02-25 17:20:00,42.0,18.2,-100.00,North,-999,-999.0,-999.0,38,-99.99,,,-99.99,WSDL version 420,2013-02-26 00:20:00,
2013-02-25 17:25:00,41.7,17.9,-100.00,North,-999,-999.0,-999.0,38,-99.99,,,-99.99,WSDL version 420,2013-02-26 00:25:00,
2013-02-25 17:30:00,41.5,17.7,-100.00,North,-999,-999.0,-999.0,38,-99.99,,,-99.99,WSDL version 420,2013-02-26 00:30:00,
2013-02-25 17:35:00,41.2,17.5,-100.00,North,-999,-999.0,-999.0,38,-99.99,,,-99.99,WSDL version 420,2013-02-26 00:35:00,
2013-02-25 17:41:00,41.0,17.3,-100.00,North,-999,-999.0,-999.0,38,-99.99,,,-99.99,WSDL version 420,2013-02-26 00:41:00,
2013-02-25 17:46:00,40.8,17.7,-100.00,North,-999,-999.0,-999.0,39,-99.99,,,-99.99,WSDL version 420,2013-02-26 00:46:00,
2013-02-25 17:51:00,40.6,17.6,-100.00,North,-999,-999.0,-999.0,39,-99.99,,,-99.99,WSDL version 420,2013-02-26 00:51:00,
2013-02-25 17:56:00,40.4,17.4,-100.00,North,-999,-999.0,-999.0,39,-99.99,,,-99.99,WSDL version 420,2013-02-26 00:56:00,
2013-02-25 18:01:00,40.2,17.2,-100.00,North,-999,-999.0,-999.0,39,-99.99,,,-99.99,WSDL version 420,2013-02-26 01:01:00,
2013-02-25 18:06:00,39.9,16.9,-100.00,North,-999,-999.0,-999.0,39,-99.99,,,-99.99,WSDL version 420,2013-02-26 01:06:00,
2013-02-25 18:11:00,39.7,16.8,-100.00,North,-999,-999.0,-999.0,39,-99.99,,,-99.99,WSDL version 420,2013-02-26 01:11:00,
2013-02-25 18:16:00,39.5,16.6,-100.00,North,-999,-999.0,-999.0,39,-99.99,,,-99.99,WSDL version 420,2013-02-26 01:16:00,
2013-02-25 18:21:00,39.4,16.5,-100.00,North,-999,-999.0,-999.0,39,-99.99,,,-99.99,WSDL version 420,2013-02-26 01:21:00,
2013-02-25 18:26:00,39.2,16.3,-100.00,North,-999,-999.0,-999.0,39,-99.99,,,-99.99,WSDL version 420,2013-02-26 01:26:00,
2013-02-25 18:31:00,39.2,16.3,-100.00,North,-999,-999.0,-999.0,39,-99.99,,,-99.99,WSDL version 420,2013-02-26 01:31:00,
2013-02-25 18:36:00,39.1,16.2,-100.00,North,-999,-999.0,-999.0,39,-99.99,,,-99.99,WSDL version 420,2013-02-26 01:36:00,
2013-02-25 18:41:00,39.0,16.2,-100.00,North,-999,-999.0,-999.0,39,-99.99,,,-99.99,WSDL version 420,2013-02-26 01:41:00,
2013-02-25 18:46:00,39.0,16.2,-100.00,North,-999,-999.0,-999.0,39,-99.99,,,-99.99,WSDL version 420,2013-02-26 01:46:00,
2013-02-25 18:51:00,39.0,16.2,-100.00,North,-999,-999.0,-999.0,39,-99.99,,,-99.99,WSDL version 420,2013-02-26 01:51:00,
2013-02-25 18:56:00,39.1,16.2,-100.00,North,-999,-999.0,-999.0,39,-99.99,,,-99.99,WSDL version 420,2013-02-26 01:56:00,
2013-02-25 19:01:00,39.2,16.3,-100.00,North,-999,-999.0,-999.0,39,-99.99,,,-99.99,WSDL version 420,2013-02-26 02:01:00,
2013-02-25 19:06:00,39.2,16.3,-100.00,North,-999,-999.0,-999.0,39,-99.99,,,-99.99,WSDL version 420,2013-02-26 02:06:00,
2013-02-25 19:11:00,39.2,16.3,-100.00,North,-999,-999.0,-999.0,39,-99.99,,,-99.99,WSDL version 420,2013-02-26 02:11:00,
2013-02-25 19:16:00,39.0,16.2,-100.00,North,-999,-999.0,-999.0,39,-99.99,,,-99.99,WSDL version 420,2013-02-26 02:16:00,
2013-02-25 19:21:00,39.0,16.3,-100.00,North,-999,-999.0,-999.0,40,-99.99,,,-99.99,WSDL version 420,2013-02-26 02:21:00,
2013-02-25 19:26:00,39.2,16.3,-100.00,North,-999,-999.0,-999.0,39,-99.99,,,-99.99,WSDL version 420,2013-02-26 02:26:00,
2013-02-25 19:31:00,39.2,16.3,-100.00,North,-999,-999.0,-999.0,39,-99.99,,,-99.99,WSDL version 420,2013-02-26 02:31:00,
2013-02-25 19:36:00,39.2,16.3,-100.00,North,-999,-999.0,-999.0,39,-99.99,,,-99.99,WSDL version 420,2013-02-26 02:36:00,
2013-02-25 19:41:00,39.2,16.3,-100.00,North,-999,-999.0,-999.0,39,-99.99,,,-99.99,WSDL version 420,2013-02-26 02:41:00,
2013-02-25 19:46:00,39.4,17.1,-100.00,North,-999,-999.0,-999.0,40,-99.99,,,-99.99,WSDL version 420,2013-02-26 02:46:00,
2013-02-25 19:51:00,39.4,17.1,-100.00,North,-999,-999.0,-999.0,40,-99.99,,,-99.99,WSDL version 420,2013-02-26 02:51:00,
2013-02-25 19:56:00,39.4,17.1,-100.00,North,-999,-999.0,-999.0,40,-99.99,,,-99.99,WSDL version 420,2013-02-26 02:56:00,
2013-02-25 20:01:00,39.4,17.1,-100.00,North,-999,-999.0,-999.0,40,-99.99,,,-99.99,WSDL version 420,2013-02-26 03:01:00,
2013-02-25 20:06:00,39.4,17.1,-100.00,North,-999,-999.0,-999.0,40,-99.99,,,-99.99,WSDL version 420,2013-02-26 03:06:00,
2013-02-25 20:11:00,39.4,17.1,-100.00,North,-999,-999.0,-999.0,40,-99.99,,,-99.99,WSDL version 420,2013-02-26 03:11:00,
2013-02-25 20:16:00,39.4,17.1,-100.00,North,-999,-999.0,-999.0,40,-99.99,,,-99.99,WSDL version 420,2013-02-26 03:16:00,
2013-02-25 20:21:00,39.4,17.6,-100.00,North,-999,-999.0,-999.0,41,-99.99,,,-99.99,WSDL version 420,2013-02-26 03:21:00,
2013-02-25 20:26:00,39.4,17.6,-100.00,North,-999,-999.0,-999.0,41,-99.99,,,-99.99,WSDL version 420,2013-02-26 03:26:00,
2013-02-25 20:31:00,39.4,17.6,-100.00,North,-999,-999.0,-999.0,41,-99.99,,,-99.99,WSDL version 420,2013-02-26 03:31:00,
2013-02-25 20:36:00,39.2,17.5,-100.00,North,-999,-999.0,-999.0,41,-99.99,,,-99.99,WSDL version 420,2013-02-26 03:36:00,
2013-02-25 20:41:00,39.2,17.5,-100.00,North,-999,-999.0,-999.0,41,-99.99,,,-99.99,WSDL version 420,2013-02-26 03:41:00,
2013-02-25 20:46:00,39.2,17.5,-100.00,North,-999,-999.0,-999.0,41,-99.99,,,-99.99,WSDL version 420,2013-02-26 03:46:00,
2013-02-25 20:52:00,39.2,17.5,-100.00,North,-999,-999.0,-999.0,41,-99.99,,,-99.99,WSDL version 420,2013-02-26 03:52:00,
2013-02-25 20:57:00,39.2,17.5,-100.00,North,-999,-999.0,-999.0,41,-99.99,,,-99.99,WSDL version 420,2013-02-26 03:57:00,
2013-02-25 21:14:00,39.0,17.9,-100.00,North,-999,-999.0,-999.0,42,-99.99,,,-99.99,WSDL version 420,2013-02-26 04:14:00,
2013-02-25 21:19:00,39.0,17.9,-100.00,North,-999,-999.0,-999.0,42,-99.99,,,-99.99,WSDL version 420,2013-02-26 04:19:00,
2013-02-25 21:24:00,39.0,17.9,-100.00,North,-999,-999.0,-999.0,42,-99.99,,,-99.99,WSDL version 420,2013-02-26 04:24:00,
2013-02-25 21:29:00,39.0,17.9,-100.00,North,-999,-999.0,-999.0,42,-99.99,,,-99.99,WSDL version 420,2013-02-26 04:29:00,
2013-02-25 21:34:00,38.8,17.7,-100.00,North,-999,-999.0,-999.0,42,-99.99,,,-99.99,WSDL version 420,2013-02-26 04:34:00,
2013-02-25 21:39:00,38.8,17.7,-100.00,North,-999,-999.0,-999.0,42,-99.99,,,-99.99,WSDL version 420,2013-02-26 04:39:00,
2013-02-25 21:44:00,38.8,17.7,-100.00,North,-999,-999.0,-999.0,42,-99.99,,,-99.99,WSDL version 420,2013-02-26 04:44:00,
2013-02-25 21:49:00,38.8,17.7,-100.00,North,-999,-999.0,-999.0,42,-99.99,,,-99.99,WSDL version 420,2013-02-26 04:49:00,
2013-02-25 21:54:00,38.8,17.7,-100.00,North,-999,-999.0,-999.0,42,-99.99,,,-99.99,WSDL version 420,2013-02-26 04:54:00,
2013-02-25 21:59:00,38.7,17.6,-100.00,North,-999,-999.0,-999.0,42,-99.99,,,-99.99,WSDL version 420,2013-02-26 04:59:00,
2013-02-25 22:00:00,38.7,17.6,-100.00,North,-999,-999.0,-999.0,42,-99.99,,,-99.99,WSDL version 420,2013-02-26 05:00:00,
2013-02-25 22:01:00,38.7,17.5,-100.00,North,-999,-999.0,-999.0,42,-99.99,,,-99.99,WSDL version 420,2013-02-26 05:01:00,
2013-02-25 22:02:00,38.7,17.5,-100.00,North,-999,-999.0,-999.0,42,-99.99,,,-99.99,WSDL version 420,2013-02-26 05:02:00,
2013-02-25 22:07:00,38.7,17.5,-100.00,North,-999,-999.0,-999.0,42,-99.99,,,-99.99,WSDL version 420,2013-02-26 05:07:00,
2013-02-25 22:12:00,38.7,17.5,-100.00,North,-999,-999.0,-999.0,42,-99.99,,,-99.99,WSDL version 420,2013-02-26 05:12:00,
2013-02-25 22:17:00,38.5,17.4,-100.00,North,-999,-999.0,-999.0,42,-99.99,,,-99.99,WSDL version 420,2013-02-26 05:17:00,
2013-02-25 22:22:00,38.5,17.4,-100.00,North,-999,-999.0,-999.0,42,-99.99,,,-99.99,WSDL version 420,2013-02-26 05:22:00,
2013-02-25 22:27:00,38.5,17.4,-100.00,North,-999,-999.0,-999.0,42,-99.99,,,-99.99,WSDL version 420,2013-02-26 05:27:00,
2013-02-25 22:32:00,38.4,17.9,-100.00,North,-999,-999.0,-999.0,43,-99.99,,,-99.99,WSDL version 420,2013-02-26 05:32:00,
2013-02-25 22:37:00,38.3,17.8,-100.00,North,-999,-999.0,-999.0,43,-99.99,,,-99.99,WSDL version 420,2013-02-26 05:37:00,
2013-02-25 22:42:00,38.2,17.7,-100.00,North,-999,-999.0,-999.0,43,-99.99,,,-99.99,WSDL version 420,2013-02-26 05:42:00,
2013-02-25 22:47:00,38.1,17.6,-100.00,North,-999,-999.0,-999.0,43,-99.99,,,-99.99,WSDL version 420,2013-02-26 05:47:00,
2013-02-25 22:52:00,38.1,17.6,-100.00,North,-999,-999.0,-999.0,43,-99.99,,,-99.99,WSDL version 420,2013-02-26 05:52:00,
2013-02-25 22:57:00,37.9,17.4,-100.00,North,-999,-999.0,-999.0,43,-99.99,,,-99.99,WSDL version 420,2013-02-26 05:57:00,
2013-02-25 23:02:00,37.9,17.5,-100.00,North,-999,-999.0,-999.0,44,-99.99,,,-99.99,WSDL version 420,2013-02-26 06:02:00,
2013-02-25 23:07:00,37.9,17.9,-100.00,North,-999,-999.0,-999.0,44,-99.99,,,-99.99,WSDL version 420,2013-02-26 06:07:00,
2013-02-25 23:12:00,37.8,17.8,-100.00,North,-999,-999.0,-999.0,44,-99.99,,,-99.99,WSDL version 420,2013-02-26 06:12:00,
2013-02-25 23:17:00,37.8,17.8,-100.00,North,-999,-999.0,-999.0,44,-99.99,,,-99.99,WSDL version 420,2013-02-26 06:17:00,
2013-02-25 23:22:00,37.6,17.7,-100.00,North,-999,-999.0,-999.0,44,-99.99,,,-99.99,WSDL version 420,2013-02-26 06:22:00,
2013-02-25 23:27:00,37.6,17.6,-100.00,North,-999,-999.0,-999.0,44,-99.99,,,-99.99,WSDL version 420,2013-02-26 06:27:00,
2013-02-25 23:32:00,37.6,17.6,-100.00,North,-999,-999.0,-999.0,44,-99.99,,,-99.99,WSDL version 420,2013-02-26 06:32:00,
2013-02-25 23:37:00,37.5,17.6,-100.00,North,-999,-999.0,-999.0,44,-99.99,,,-99.99,WSDL version 420,2013-02-26 06:37:00,
2013-02-25 23:42:00,37.4,17.5,-100.00,North,-999,-999.0,-999.0,44,-99.99,,,-99.99,WSDL version 420,2013-02-26 06:42:00,
2013-02-25 23:47:00,37.4,17.5,-100.00,North,-999,-999.0,-999.0,44,-99.99,,,-99.99,WSDL version 420,2013-02-26 06:47:00,
2013-02-25 23:52:00,37.3,17.6,-100.00,North,-999,-999.0,-999.0,45,-99.99,,,-99.99,WSDL version 420,2013-02-26 06:52:00,
2013-02-25 23:57:00,37.1,17.8,-100.00,North,-999,-999.0,-999.0,45,-99.99,,,-99.99,WSDL version 420,2013-02-26 06:57:00,